This is the latest recevied weather packets stored in our database for station/object DO2TC-13. If no packets are shown the sender has not sent any weather packets the latest 10 day(s).
| Time | Temp. | Humidity | Pressure | Rain* | Wind** | Luminosity | Snow |
|---|---|---|---|---|---|---|---|
| 1777823152 | 26.11° C | 29% | 1009.3 hPa | 0 mm | - | 75 W/m² | - |
| 1777821375 | 27.22° C | 29% | 1009.3 hPa | 0 mm | - | 116 W/m² | - |
| 1777820769 | 27.22° C | 31% | 1009.3 hPa | 0 mm | - | 232 W/m² | - |
| 1777818951 | 27.22° C | 31% | 1009.5 hPa | 0 mm | - | 284 W/m² | - |
| 1777814777 | 28.33° C | 29% | 1010 hPa | 0 mm | - | 632 W/m² | - |
| 1777814192 | 28.33° C | 28% | 1010.1 hPa | 0 mm | - | 624 W/m² | - |
| 1777806370 | 27.22° C | 36% | 1010.7 hPa | 0 mm | - | 801 W/m² | - |
| 1777804570 | 26.67° C | 38% | 1011.1 hPa | 0 mm | - | 799 W/m² | - |
| 1777803941 | 26.67° C | 38% | 1011.1 hPa | 0 mm | - | 797 W/m² | - |
| 1777803336 | 26.11° C | 38% | 1011.3 hPa | 0 mm | - | 805 W/m² | - |
| 1777801545 | 25° C | 40% | 1011.5 hPa | 0 mm | - | 748 W/m² | - |
| 1777793721 | 21.11° C | 45% | 1012 hPa | 0 mm | - | 498 W/m² | - |
| 1777792570 | 20° C | 46% | 1012.1 hPa | 0 mm | - | 453 W/m² | - |
| 1777791355 | 20° C | 46% | 1012 hPa | 0 mm | - | 396 W/m² | - |
| 1777788932 | - | - | 1012.1 hPa | 0 mm | - | 275 W/m² | - |
| 1777788328 | - | - | 1012.1 hPa | 0 mm | - | 239 W/m² | - |
| 1777787764 | - | - | 1012.1 hPa | 0 mm | - | 217 W/m² | - |
| 1777782944 | - | - | 1012.4 hPa | 0 mm | - | 52 W/m² | - |
| 1777775133 | - | - | 1012.6 hPa | 0 mm | - | 0 W/m² | - |
| 1777773319 | - | - | 1012.6 hPa | 0 mm | - | 0 W/m² | - |
| 1777767330 | - | - | 1013.2 hPa | 0 mm | - | 0 W/m² | - |
| 1777766745 | - | - | 1013.3 hPa | 0 mm | - | 0 W/m² | - |
| 1777763155 | - | - | 1013.7 hPa | 0 mm | - | 0 W/m² | - |
| 1777760732 | - | - | 1013.9 hPa | 0 mm | - | 0 W/m² | - |
| 1777758917 | - | - | 1014 hPa | 0 mm | - | 0 W/m² | - |
* Rain latest hour (hover to see other rain measurements)
** Current wind speed in m/s (hover to see current wind gust speed)